Time;durP1;ratioP1;P1;durP2;ratioP2;P2;SDS_P1;SDS_P2;PMS_P1;PMS_P2;Temp;Humidity;BMP_temperature;BMP_pressure;BME280_temperature;BME280_humidity;BME280_pressure;Samples;Min_cycle;Max_cycle;Signal;HPM_P1;HPM_P2
2023/09/13 00:28:50;;;;;;;3.35;2.50;;;23.90;68.80;;;;;;5069213;23;20560;-79
2023/09/13 00:31:17;;;;;;;4.10;2.60;;;23.90;68.80;;;;;;4974592;28;20041;-79
2023/09/13 00:33:43;;;;;;;3.90;2.90;;;23.90;68.90;;;;;;4988247;28;20088;-79
2023/09/13 00:36:09;;;;;;;3.90;2.83;;;23.90;68.90;;;;;;4974132;28;20030;-79
2023/09/13 00:38:34;;;;;;;4.75;3.20;;;23.90;69.00;;;;;;4996698;28;20048;-79
2023/09/13 00:41:00;;;;;;;4.82;3.63;;;23.90;68.90;;;;;;4973231;28;20477;-79
2023/09/13 00:43:26;;;;;;;3.97;2.88;;;23.90;69.00;;;;;;4976737;28;20494;-79
2023/09/13 00:45:52;;;;;;;5.07;3.10;;;23.90;69.00;;;;;;4980434;28;20196;-79
2023/09/13 00:48:18;;;;;;;3.55;2.75;;;23.90;69.00;;;;;;4996971;28;20034;-79
2023/09/13 00:50:46;;;;;;;4.45;3.00;;;23.80;69.00;;;;;;4996139;28;20041;-79
2023/09/13 00:53:13;;;;;;;3.72;2.83;;;23.80;69.00;;;;;;4994844;28;20030;-79
2023/09/13 00:55:40;;;;;;;4.43;3.05;;;23.80;69.00;;;;;;4996966;28;20041;-79
2023/09/13 00:58:06;;;;;;;4.05;3.10;;;23.80;69.00;;;;;;4996622;28;20030;-79
2023/09/13 01:00:33;;;;;;;4.28;3.17;;;23.80;69.60;;;;;;4996736;28;20029;-79
2023/09/13 01:03:00;;;;;;;4.18;3.15;;;23.80;69.00;;;;;;4994342;28;20026;-79
2023/09/13 01:05:26;;;;;;;4.05;3.10;;;23.80;69.00;;;;;;4964191;28;20471;-79
2023/09/13 01:07:52;;;;;;;4.68;3.50;;;23.80;69.00;;;;;;4978817;28;20030;-80
2023/09/13 01:10:19;;;;;;;4.13;3.00;;;23.80;69.10;;;;;;4976830;28;20084;-80
2023/09/13 01:12:46;;;;;;;4.13;3.03;;;23.80;69.10;;;;;;5013420;28;20045;-80
2023/09/13 01:15:13;;;;;;;4.07;3.08;;;23.80;69.10;;;;;;4996489;28;20084;-80
2023/09/13 01:17:42;;;;;;;4.05;3.08;;;23.80;69.10;;;;;;4979941;28;20030;-79
2023/09/13 01:20:25;;;;;;;4.53;3.28;;;23.80;69.10;;;;;;5012857;28;20029;-79
2023/09/13 01:22:50;;;;;;;3.80;2.97;;;23.70;69.20;;;;;;4996345;28;20585;-79
2023/09/13 01:25:53;;;;;;;4.05;2.95;;;23.70;69.10;;;;;;4998784;28;20108;-79
2023/09/13 01:28:31;;;;;;;4.07;3.15;;;23.70;69.20;;;;;;4991180;28;20050;-80
2023/09/13 01:30:57;;;;;;;3.78;2.85;;;23.70;69.20;;;;;;4976702;28;20093;-79
2023/09/13 01:33:23;;;;;;;4.35;3.03;;;23.70;69.20;;;;;;4976346;28;20034;-79
2023/09/13 01:35:49;;;;;;;4.32;3.17;;;23.70;69.20;;;;;;5002503;28;20117;-79
2023/09/13 01:38:15;;;;;;;4.88;3.22;;;23.70;69.30;;;;;;4972701;28;20026;-80
2023/09/13 01:40:44;;;;;;;4.07;2.90;;;23.60;69.20;;;;;;4992749;28;20054;-79
2023/09/13 01:43:11;;;;;;;3.95;2.83;;;23.60;69.30;;;;;;4973208;28;20042;-79
2023/09/13 01:45:37;;;;;;;4.03;3.25;;;23.60;69.30;;;;;;4992110;28;20026;-79
2023/09/13 01:48:04;;;;;;;4.97;3.22;;;23.60;69.40;;;;;;4991493;28;20109;-79
2023/09/13 01:50:31;;;;;;;3.65;2.95;;;23.60;69.40;;;;;;4991720;28;20027;-79
2023/09/13 01:52:57;;;;;;;4.30;3.25;;;23.60;69.40;;;;;;4951373;28;20178;-79
2023/09/13 01:55:22;;;;;;;4.03;3.08;;;23.60;69.40;;;;;;4992950;28;20122;-80
2023/09/13 01:57:49;;;;;;;3.80;3.00;;;23.50;69.40;;;;;;4991401;28;20026;-78
2023/09/13 02:00:15;;;;;;;4.18;3.13;;;23.60;69.50;;;;;;4959589;28;20392;-78
2023/09/13 02:02:41;;;;;;;4.30;2.97;;;23.60;69.40;;;;;;4975765;28;20487;-80
2023/09/13 02:05:07;;;;;;;3.80;3.05;;;23.50;69.40;;;;;;4960029;28;20029;-78
2023/09/13 02:07:32;;;;;;;3.83;3.05;;;23.50;69.50;;;;;;4970442;28;20041;-79
2023/09/13 02:09:58;;;;;;;4.13;3.33;;;23.50;69.50;;;;;;4974547;28;20118;-79
2023/09/13 02:12:24;;;;;;;4.10;3.28;;;23.50;69.50;;;;;;4988458;28;20081;-79
2023/09/13 02:14:49;;;;;;;4.65;3.45;;;23.50;69.50;;;;;;4991246;28;20077;-78
2023/09/13 02:17:16;;;;;;;4.40;3.05;;;23.50;69.60;;;;;;4975721;28;20038;-79
2023/09/13 02:19:42;;;;;;;4.50;3.10;;;23.50;69.60;;;;;;4958482;28;20038;-79
2023/09/13 02:22:08;;;;;;;4.20;3.08;;;23.50;69.60;;;;;;5005647;28;20387;-78
2023/09/13 02:24:33;;;;;;;4.20;3.28;;;23.50;69.70;;;;;;4991056;28;20390;-79
2023/09/13 02:26:59;;;;;;;4.15;2.97;;;23.50;69.70;;;;;;4990950;28;20050;-78
2023/09/13 02:29:26;;;;;;;4.15;3.10;;;23.50;69.70;;;;;;4975863;28;20057;-78
2023/09/13 02:31:52;;;;;;;4.95;3.28;;;23.50;69.70;;;;;;4989107;28;20069;-78
2023/09/13 02:34:19;;;;;;;4.20;3.38;;;23.50;69.70;;;;;;4959100;28;20039;-78
2023/09/13 02:36:45;;;;;;;3.97;3.03;;;23.50;69.70;;;;;;4987639;28;20034;-80
2023/09/13 02:39:42;;;;;;;4.82;3.55;;;23.40;69.80;;;;;;4974262;28;20026;-79
2023/09/13 02:42:08;;;;;;;4.22;2.88;;;23.40;69.80;;;;;;4979009;28;20077;-78
2023/09/13 02:44:35;;;;;;;4.72;3.60;;;23.40;69.80;;;;;;4990693;28;20065;-79
2023/09/13 02:47:02;;;;;;;5.65;3.72;;;23.40;69.80;;;;;;5002642;28;20030;-79
2023/09/13 02:49:28;;;;;;;4.18;3.25;;;23.40;69.80;;;;;;4973700;28;20387;-79
2023/09/13 02:51:54;;;;;;;4.90;3.65;;;23.40;69.80;;;;;;4990727;28;20053;-79
2023/09/13 02:54:20;;;;;;;4.10;3.35;;;23.30;69.80;;;;;;4990079;28;20414;-78
2023/09/13 02:56:49;;;;;;;5.15;3.35;;;23.30;69.90;;;;;;4990804;28;20022;-79
2023/09/13 02:59:16;;;;;;;5.10;3.78;;;23.30;70.00;;;;;;4990496;28;20031;-79
2023/09/13 03:01:42;;;;;;;4.65;3.65;;;23.30;70.00;;;;;;4990782;28;21433;-79
2023/09/13 03:04:09;;;;;;;4.28;3.38;;;23.30;70.00;;;;;;4958810;28;20037;-79
2023/09/13 03:06:35;;;;;;;4.85;3.58;;;23.30;70.00;;;;;;4957967;28;20038;-79
2023/09/13 03:09:00;;;;;;;4.10;3.08;;;23.30;70.10;;;;;;4974920;28;20034;-79
2023/09/13 03:11:26;;;;;;;4.95;3.42;;;23.30;70.10;;;;;;4990824;28;20176;-79
2023/09/13 03:13:53;;;;;;;4.30;3.25;;;23.30;70.10;;;;;;4974267;28;20573;-79
2023/09/13 03:16:20;;;;;;;4.60;3.35;;;23.30;70.10;;;;;;4990852;28;20022;-80
2023/09/13 03:18:49;;;;;;;4.88;3.35;;;23.20;70.10;;;;;;4974341;28;20030;-79
2023/09/13 03:21:18;;;;;;;5.53;3.55;;;23.30;70.20;;;;;;5003166;28;20100;-79
2023/09/13 03:23:46;;;;;;;4.30;3.30;;;23.20;70.10;;;;;;5006010;28;20030;-79
2023/09/13 03:26:19;;;;;;;4.55;3.80;;;23.20;70.10;;;;;;4987848;28;20561;-79
2023/09/13 03:28:48;;;;;;;4.75;3.58;;;23.20;70.20;;;;;;4989999;28;20050;-78
2023/09/13 03:31:16;;;;;;;6.15;3.88;;;23.20;70.20;;;;;;4989668;28;20030;-79
2023/09/13 03:33:43;;;;;;;4.80;3.58;;;23.20;70.30;;;;;;4974053;28;20077;-79
2023/09/13 03:36:11;;;;;;;4.65;3.35;;;23.20;70.30;;;;;;4974573;28;20038;-79
2023/09/13 03:38:40;;;;;;;4.57;3.67;;;23.10;70.20;;;;;;4958067;28;20114;-79
2023/09/13 03:41:08;;;;;;;4.88;3.83;;;23.10;70.20;;;;;;4985926;28;20538;-79
2023/09/13 03:43:35;;;;;;;5.15;3.75;;;23.20;70.30;;;;;;4988237;28;20030;-79
2023/09/13 03:46:03;;;;;;;4.78;3.55;;;23.10;70.30;;;;;;4972058;28;20023;-79
2023/09/13 03:48:34;;;;;;;5.00;3.78;;;23.10;70.30;;;;;;4958395;28;20057;-79
2023/09/13 03:51:01;;;;;;;5.70;4.10;;;23.10;70.40;;;;;;4990089;28;20400;-79
2023/09/13 03:53:27;;;;;;;5.20;3.97;;;23.10;70.30;;;;;;4990012;28;20432;-79
2023/09/13 03:55:53;;;;;;;6.10;4.85;;;23.00;70.30;;;;;;4990486;28;20456;-79
2023/09/13 03:58:20;;;;;;;6.70;4.70;;;23.00;70.40;;;;;;4973794;28;20476;-79
2023/09/13 04:00:46;;;;;;;5.35;4.28;;;23.00;70.40;;;;;;4989338;28;20030;-79
2023/09/13 04:03:13;;;;;;;5.97;4.43;;;23.00;70.40;;;;;;4990955;28;20030;-79
2023/09/13 04:05:39;;;;;;;5.40;4.25;;;23.00;70.40;;;;;;4971686;28;20027;-79
2023/09/13 04:08:05;;;;;;;5.53;4.63;;;23.00;70.40;;;;;;4971536;28;20467;-79
2023/09/13 04:10:30;;;;;;;6.15;5.18;;;23.00;70.40;;;;;;4994186;28;20030;-79
2023/09/13 04:12:56;;;;;;;6.07;4.97;;;23.00;70.80;;;;;;5010399;28;20471;-79
2023/09/13 04:15:22;;;;;;;6.68;5.28;;;23.00;70.50;;;;;;4978214;28;20527;-79
2023/09/13 04:17:48;;;;;;;6.65;5.40;;;23.00;70.50;;;;;;4977945;28;20057;-80
2023/09/13 04:20:14;;;;;;;6.45;5.55;;;23.00;70.60;;;;;;5005028;28;20030;-79
2023/09/13 04:22:39;;;;;;;6.47;5.63;;;23.00;70.60;;;;;;4962369;28;20121;-79
2023/09/13 04:25:06;;;;;;;7.07;5.63;;;22.90;70.50;;;;;;4993560;28;20067;-79
2023/09/13 04:27:31;;;;;;;7.30;5.45;;;22.90;70.50;;;;;;4962947;28;20047;-79
2023/09/13 04:29:57;;;;;;;6.93;5.43;;;22.90;70.60;;;;;;4974682;28;20058;-79
2023/09/13 04:32:24;;;;;;;7.00;5.47;;;22.90;70.60;;;;;;4973961;28;20145;-79
2023/09/13 04:34:51;;;;;;;6.80;5.45;;;22.90;70.60;;;;;;4971217;28;20164;-79
2023/09/13 04:37:17;;;;;;;6.90;5.72;;;22.90;70.60;;;;;;4953898;28;20134;-79
2023/09/13 04:39:43;;;;;;;7.20;5.22;;;22.90;70.60;;;;;;4971016;28;20058;-78
2023/09/13 04:42:10;;;;;;;7.85;5.82;;;22.90;70.60;;;;;;4972914;28;20050;-79
2023/09/13 04:44:36;;;;;;;7.00;6.15;;;22.90;70.70;;;;;;4975724;28;20057;-79
2023/09/13 04:47:02;;;;;;;7.80;6.25;;;22.90;70.70;;;;;;4968564;28;20034;-79
2023/09/13 04:49:28;;;;;;;8.05;6.20;;;22.90;70.70;;;;;;4956988;28;20027;-79
2023/09/13 04:51:56;;;;;;;9.00;6.53;;;22.90;70.70;;;;;;4973002;28;20038;-79
2023/09/13 04:54:22;;;;;;;8.07;6.68;;;22.90;70.70;;;;;;4951513;28;20030;-79
2023/09/13 04:56:49;;;;;;;8.18;6.90;;;22.90;70.70;;;;;;4957608;28;20476;-78
2023/09/13 04:59:16;;;;;;;8.43;7.00;;;22.90;70.80;;;;;;4973381;28;20086;-79
2023/09/13 05:01:42;;;;;;;8.57;7.07;;;22.80;70.70;;;;;;4973239;28;20491;-80
2023/09/13 05:04:09;;;;;;;8.40;7.20;;;22.80;70.70;;;;;;4956668;28;20118;-79
2023/09/13 05:06:34;;;;;;;7.95;6.82;;;22.80;70.80;;;;;;4974181;28;20062;-79
2023/09/13 05:09:00;;;;;;;8.68;7.38;;;22.80;70.80;;;;;;4953677;28;20121;-78
2023/09/13 05:11:26;;;;;;;8.23;6.97;;;22.80;70.80;;;;;;4971486;28;20035;-79
2023/09/13 05:14:08;;;;;;;9.35;7.05;;;22.70;70.70;;;;;;4957316;28;20475;-79
2023/09/13 05:16:34;;;;;;;8.43;7.10;;;22.80;70.90;;;;;;4974615;28;20031;-78
2023/09/13 05:19:00;;;;;;;9.82;7.78;;;22.80;70.80;;;;;;4956156;28;20121;-79
2023/09/13 05:21:25;;;;;;;9.15;7.38;;;22.80;70.80;;;;;;4968939;28;20023;-79
2023/09/13 05:23:51;;;;;;;9.07;8.07;;;22.80;70.90;;;;;;4956329;28;20026;-79
2023/09/13 05:26:17;;;;;;;10.70;8.32;;;22.70;70.80;;;;;;4952103;28;20447;-79
2023/09/13 05:28:43;;;;;;;9.57;8.10;;;22.70;70.80;;;;;;4991156;28;20129;-79
2023/09/13 05:31:08;;;;;;;9.00;7.57;;;22.70;70.80;;;;;;4959981;28;20034;-79
2023/09/13 05:33:34;;;;;;;9.23;7.68;;;22.70;70.90;;;;;;4991905;28;20065;-78
2023/09/13 05:36:00;;;;;;;8.75;7.80;;;22.70;71.50;;;;;;4976376;28;20486;-79
2023/09/13 05:38:26;;;;;;;9.73;8.38;;;22.70;70.90;;;;;;4959216;28;20109;-79
2023/09/13 05:40:51;;;;;;;9.25;7.95;;;22.70;70.90;;;;;;4960106;28;20034;-78
2023/09/13 05:43:17;;;;;;;9.65;7.78;;;22.70;70.90;;;;;;4975510;28;20034;-79
2023/09/13 05:45:43;;;;;;;10.13;8.98;;;22.70;71.00;;;;;;4989012;28;20030;-79
2023/09/13 05:48:09;;;;;;;10.00;8.38;;;22.70;71.00;;;;;;4993780;28;20030;-79
2023/09/13 05:50:34;;;;;;;9.43;7.53;;;22.60;70.90;;;;;;4992304;28;20061;-80
2023/09/13 05:53:00;;;;;;;8.75;7.65;;;22.60;71.00;;;;;;4987821;28;20407;-78
2023/09/13 05:55:26;;;;;;;9.95;8.30;;;22.70;71.00;;;;;;4976159;28;20038;-79
2023/09/13 05:57:52;;;;;;;10.02;8.20;;;22.60;71.00;;;;;;4976705;28;20495;-79
2023/09/13 06:00:18;;;;;;;9.27;7.65;;;22.60;71.00;;;;;;4974041;28;20039;-79
2023/09/13 06:02:44;;;;;;;10.77;9.02;;;22.60;71.00;;;;;;4992255;28;20042;-79
2023/09/13 06:05:10;;;;;;;9.10;8.10;;;22.60;71.00;;;;;;4959757;28;20038;-79
2023/09/13 06:07:37;;;;;;;9.82;8.27;;;22.60;71.00;;;;;;4974762;28;20039;-79
2023/09/13 06:10:04;;;;;;;10.93;8.77;;;22.60;71.00;;;;;;4973467;28;20023;-79
2023/09/13 06:12:30;;;;;;;10.88;8.70;;;22.60;71.10;;;;;;4989823;28;20085;-79
2023/09/13 06:14:57;;;;;;;10.43;8.63;;;22.60;71.10;;;;;;4962863;28;20026;-79
2023/09/13 06:17:24;;;;;;;11.45;8.82;;;22.60;71.10;;;;;;4975939;28;20034;-81
2023/09/13 06:19:50;;;;;;;10.23;8.82;;;22.60;71.20;;;;;;4991946;28;20030;-79
2023/09/13 06:22:17;;;;;;;9.93;8.32;;;22.60;71.20;;;;;;4976069;28;20039;-77
2023/09/13 06:24:46;;;;;;;10.10;8.45;;;22.60;71.20;;;;;;4992112;28;20110;-79
2023/09/13 06:27:12;;;;;;;9.68;8.38;;;22.60;71.20;;;;;;4991632;28;20134;-78
2023/09/13 06:29:38;;;;;;;11.05;9.05;;;22.60;71.20;;;;;;4992065;28;20125;-79
2023/09/13 06:32:04;;;;;;;10.20;8.23;;;22.50;71.20;;;;;;4991147;28;20046;-78
2023/09/13 06:34:30;;;;;;;10.45;8.77;;;22.50;71.20;;;;;;4975854;28;20411;-78
2023/09/13 06:36:55;;;;;;;10.48;8.55;;;22.60;71.20;;;;;;4967124;28;20057;-79
2023/09/13 06:39:21;;;;;;;10.90;8.75;;;22.60;71.20;;;;;;4975426;28;20030;-79
2023/09/13 06:41:47;;;;;;;10.93;8.85;;;22.50;71.20;;;;;;4953068;28;20034;-79
2023/09/13 06:44:16;;;;;;;9.32;8.27;;;22.50;71.20;;;;;;4991812;28;20027;-78
2023/09/13 06:46:42;;;;;;;10.55;8.73;;;22.50;71.30;;;;;;4991622;28;20035;-79
2023/09/13 06:49:08;;;;;;;11.00;9.10;;;22.50;71.30;;;;;;4959607;28;20102;-78
2023/09/13 06:51:34;;;;;;;10.77;8.90;;;22.50;71.30;;;;;;4974299;28;20062;-80
2023/09/13 06:54:00;;;;;;;10.20;8.30;;;22.50;71.30;;;;;;4959008;28;20027;-79
2023/09/13 06:56:25;;;;;;;10.57;8.45;;;22.50;71.30;;;;;;4990918;28;20560;-79
2023/09/13 06:58:53;;;;;;;10.63;8.80;;;22.50;71.30;;;;;;4974780;28;20496;-76
2023/09/13 07:01:19;;;;;;;10.95;9.07;;;22.50;71.30;;;;;;4990163;28;20034;-79
2023/09/13 07:03:45;;;;;;;10.10;8.40;;;22.50;71.30;;;;;;4991434;28;20034;-80
2023/09/13 07:06:11;;;;;;;11.60;8.45;;;22.50;71.40;;;;;;4990477;28;20034;-79
2023/09/13 07:08:37;;;;;;;9.65;7.95;;;22.50;71.40;;;;;;4968985;28;20031;-79
2023/09/13 07:11:03;;;;;;;9.18;7.00;;;22.50;71.30;;;;;;4975018;28;20029;-80
2023/09/13 07:13:29;;;;;;;8.32;6.95;;;22.50;71.30;;;;;;4974907;28;20447;-81
2023/09/13 07:15:55;;;;;;;7.57;6.28;;;22.50;71.20;;;;;;5003367;28;20034;-80
2023/09/13 07:18:20;;;;;;;7.28;5.57;;;22.50;71.20;;;;;;4991005;28;20416;-80
2023/09/13 07:20:46;;;;;;;6.88;4.85;;;22.50;71.10;;;;;;4972960;28;20537;-81
2023/09/13 07:23:12;;;;;;;6.10;4.70;;;22.50;71.00;;;;;;4992344;28;20034;-79
2023/09/13 07:25:38;;;;;;;5.13;3.70;;;22.50;70.90;;;;;;4974362;28;20029;-80
2023/09/13 07:28:04;;;;;;;5.43;3.78;;;22.50;70.90;;;;;;4989665;28;20483;-80
2023/09/13 07:30:30;;;;;;;5.13;3.50;;;22.50;70.90;;;;;;4990833;28;20120;-81
2023/09/13 07:32:55;;;;;;;3.55;2.53;;;22.50;70.80;;;;;;4990667;28;20173;-80
2023/09/13 07:35:22;;;;;;;3.75;2.70;;;22.50;70.80;;;;;;4972908;28;20109;-80
2023/09/13 07:37:48;;;;;;;2.95;2.10;;;22.50;70.70;;;;;;4973469;28;20034;-81
2023/09/13 07:40:13;;;;;;;3.33;2.05;;;22.50;70.60;;;;;;4975681;28;20038;-88
2023/09/13 07:42:39;;;;;;;2.75;1.67;;;22.40;70.60;;;;;;4959297;28;20053;-86
2023/09/13 07:45:06;;;;;;;3.05;2.10;;;22.40;70.60;;;;;;4976746;28;20130;-80
2023/09/13 07:47:35;;;;;;;2.47;1.90;;;22.40;70.60;;;;;;5007153;28;20562;-80
2023/09/13 07:50:01;;;;;;;2.53;1.80;;;22.30;70.60;;;;;;4992116;28;20519;-80
2023/09/13 07:52:27;;;;;;;1.40;1.20;;;22.40;70.60;;;;;;4989231;28;20506;-81
2023/09/13 07:54:53;;;;;;;1.85;1.40;;;22.40;70.50;;;;;;4978598;28;20030;-81
2023/09/13 07:57:19;;;;;;;1.70;1.30;;;22.40;70.60;;;;;;4962326;28;20026;-82
2023/09/13 07:59:44;;;;;;;2.20;1.30;;;22.30;70.50;;;;;;4977729;28;20506;-83
2023/09/13 08:02:10;;;;;;;1.00;0.90;;;22.30;70.40;;;;;;4975750;28;20435;-79
2023/09/13 08:04:36;;;;;;;1.77;1.20;;;22.30;70.40;;;;;;4977768;28;20038;-81
2023/09/13 08:07:02;;;;;;;1.35;0.90;;;22.30;70.50;;;;;;4994676;28;20054;-79
2023/09/13 08:09:28;;;;;;;1.92;1.00;;;22.20;70.50;;;;;;5010758;28;20022;-77
2023/09/13 08:11:54;;;;;;;1.70;0.95;;;22.20;70.50;;;;;;4962386;28;20049;-81
2023/09/13 08:14:20;;;;;;;1.30;1.10;;;22.20;70.50;;;;;;4996369;28;20034;-81
2023/09/13 08:16:46;;;;;;;1.20;1.00;;;22.20;70.50;;;;;;4977496;28;20525;-80
2023/09/13 08:19:12;;;;;;;0.95;0.93;;;22.20;70.50;;;;;;4979111;28;20026;-80
2023/09/13 08:21:39;;;;;;;0.80;0.80;;;22.20;70.50;;;;;;4994232;28;20439;-81
2023/09/13 08:24:05;;;;;;;1.00;0.90;;;22.20;70.50;;;;;;4995093;28;20038;-82
2023/09/13 08:26:31;;;;;;;2.67;1.02;;;22.20;70.50;;;;;;4975559;28;20026;-81
2023/09/13 08:28:57;;;;;;;1.52;0.90;;;22.20;70.50;;;;;;4975903;28;20550;-80
2023/09/13 08:31:25;;;;;;;1.60;1.08;;;22.10;71.00;;;;;;4994097;28;20026;-82
2023/09/13 08:33:54;;;;;;;0.90;0.80;;;22.10;70.40;;;;;;4946532;28;20046;-81
2023/09/13 08:36:21;;;;;;;1.13;0.80;;;22.10;70.40;;;;;;5004465;28;20034;-82
2023/09/13 08:38:46;;;;;;;0.90;0.70;;;22.10;70.40;;;;;;4977807;28;20027;-81
2023/09/13 08:41:15;;;;;;;1.05;0.73;;;22.10;70.40;;;;;;4962574;28;20037;-82
2023/09/13 08:43:43;;;;;;;0.75;0.70;;;22.10;70.40;;;;;;4994086;28;20038;-78
2023/09/13 08:46:11;;;;;;;0.90;0.80;;;22.10;70.40;;;;;;4995982;28;20034;-77
2023/09/13 08:48:38;;;;;;;1.60;0.90;;;22.10;70.40;;;;;;4996020;28;20027;-76
2023/09/13 08:51:05;;;;;;;0.75;0.70;;;22.10;70.40;;;;;;4979998;28;20031;-78
2023/09/13 08:53:32;;;;;;;1.38;0.85;;;22.00;70.30;;;;;;4995561;28;20480;-77
2023/09/13 08:55:59;;;;;;;1.63;0.90;;;22.00;70.30;;;;;;4995176;28;20542;-78
2023/09/13 08:58:26;;;;;;;0.70;0.70;;;22.10;70.40;;;;;;4995899;28;20066;-77
2023/09/13 09:00:54;;;;;;;0.80;0.68;;;22.00;70.20;;;;;;4997024;28;20030;-77
2023/09/13 09:03:23;;;;;;;1.08;0.63;;;22.10;70.20;;;;;;4979385;28;20030;-78
2023/09/13 09:05:50;;;;;;;1.15;0.80;;;22.10;70.20;;;;;;5012132;28;20079;-77
2023/09/13 09:08:17;;;;;;;1.17;0.77;;;22.10;70.20;;;;;;4980255;28;20062;-77
2023/09/13 09:10:44;;;;;;;1.00;0.85;;;22.10;70.20;;;;;;4995304;28;20034;-78
2023/09/13 09:13:12;;;;;;;2.25;0.80;;;22.10;70.20;;;;;;4996273;28;20130;-77
2023/09/13 09:15:39;;;;;;;1.98;0.70;;;22.00;70.20;;;;;;4995302;28;20502;-78
2023/09/13 09:18:09;;;;;;;0.80;0.80;;;22.00;70.20;;;;;;5011656;28;20121;-78
2023/09/13 09:20:38;;;;;;;1.25;0.70;;;22.10;70.20;;;;;;4996258;28;20031;-79
2023/09/13 09:23:06;;;;;;;1.33;0.82;;;22.10;70.20;;;;;;4979024;28;20038;-78
2023/09/13 09:25:32;;;;;;;1.00;0.75;;;22.10;70.20;;;;;;4995215;28;20105;-78
2023/09/13 09:27:58;;;;;;;1.02;0.80;;;22.10;70.20;;;;;;4979147;28;20081;-79
2023/09/13 09:30:32;;;;;;;1.50;1.05;;;22.10;70.10;;;;;;4995096;28;20058;-79
2023/09/13 09:33:07;;;;;;;1.00;0.90;;;22.20;70.20;;;;;;4994905;28;20030;-78
2023/09/13 09:35:34;;;;;;;0.90;0.85;;;22.20;70.10;;;;;;4995320;28;20030;-77
2023/09/13 09:38:00;;;;;;;0.80;0.80;;;22.20;69.90;;;;;;4979542;28;20030;-77
2023/09/13 09:40:26;;;;;;;0.80;0.80;;;22.20;69.90;;;;;;4978573;28;20045;-77
2023/09/13 09:42:57;;;;;;;1.48;0.80;;;22.30;69.80;;;;;;5011322;28;20483;-76
2023/09/13 09:45:24;;;;;;;1.77;0.80;;;22.30;69.70;;;;;;4994796;28;20053;-77
2023/09/13 09:47:50;;;;;;;1.77;0.80;;;22.40;69.60;;;;;;5011460;28;20030;-77
2023/09/13 09:50:17;;;;;;;0.68;0.68;;;22.40;69.50;;;;;;4978848;28;20483;-77
2023/09/13 09:52:48;;;;;;;0.90;0.80;;;22.50;69.50;;;;;;4978686;28;20034;-77
2023/09/13 09:55:15;;;;;;;0.70;0.70;;;22.50;69.30;;;;;;4995282;28;20037;-77
2023/09/13 09:57:48;;;;;;;1.20;0.80;;;22.60;69.30;;;;;;4996309;28;20033;-76
2023/09/13 10:00:15;;;;;;;0.63;0.63;;;22.60;69.20;;;;;;4995218;28;20041;-78
2023/09/13 10:02:42;;;;;;;0.93;0.68;;;22.70;69.00;;;;;;4995023;28;20479;-79
2023/09/13 10:05:08;;;;;;;0.60;0.60;;;22.70;68.90;;;;;;4994563;28;20038;-78
2023/09/13 10:07:49;;;;;;;1.02;0.90;;;22.80;68.80;;;;;;4977826;28;20042;-79
2023/09/13 10:10:30;;;;;;;0.63;0.63;;;22.90;68.80;;;;;;4978553;28;20049;-77
2023/09/13 10:12:56;;;;;;;2.17;0.73;;;22.90;68.60;;;;;;4978041;28;20133;-77
2023/09/13 10:15:22;;;;;;;0.73;0.70;;;22.90;68.50;;;;;;4979090;28;20475;-78
2023/09/13 10:17:49;;;;;;;1.08;0.82;;;23.00;68.40;;;;;;5010881;28;20030;-78
2023/09/13 10:20:21;;;;;;;1.00;0.70;;;23.10;68.30;;;;;;4994191;28;20058;-78
2023/09/13 10:22:49;;;;;;;0.88;0.80;;;23.10;68.30;;;;;;4977991;28;20108;-77
2023/09/13 10:25:17;;;;;;;1.05;0.82;;;23.20;68.20;;;;;;4995464;28;20069;-77
2023/09/13 10:27:51;;;;;;;1.00;0.88;;;23.20;68.20;;;;;;4977854;28;20050;-80
2023/09/13 10:30:27;;;;;;;1.75;0.82;;;23.20;68.20;;;;;;4993955;28;20034;-78
2023/09/13 10:32:58;;;;;;;1.65;0.90;;;23.30;68.20;;;;;;4994202;28;20099;-79
2023/09/13 10:35:29;;;;;;;0.80;0.80;;;23.30;68.00;;;;;;5010628;28;20031;-79
2023/09/13 10:38:27;;;;;;;0.98;0.80;;;23.40;68.00;;;;;;4994805;28;20034;-78
2023/09/13 10:41:03;;;;;;;0.80;0.80;;;23.40;68.00;;;;;;4935280;28;20155;-77
2023/09/13 10:43:31;;;;;;;1.15;1.02;;;23.50;68.00;;;;;;4994011;28;20041;-78
2023/09/13 10:45:58;;;;;;;1.10;0.80;;;23.50;67.90;;;;;;5010042;28;20464;-77
2023/09/13 10:48:25;;;;;;;0.88;0.75;;;23.50;67.80;;;;;;4993533;28;20038;-80
2023/09/13 10:50:54;;;;;;;1.63;0.95;;;23.50;67.80;;;;;;4977639;28;20037;-78
2023/09/13 10:53:23;;;;;;;1.45;0.98;;;23.60;67.80;;;;;;4994201;28;20054;-77
2023/09/13 10:55:50;;;;;;;1.23;1.00;;;23.60;67.70;;;;;;5009761;28;20030;-79
2023/09/13 10:58:20;;;;;;;1.55;1.10;;;23.70;67.70;;;;;;4994013;28;20035;-79
2023/09/13 11:00:54;;;;;;;1.95;1.20;;;23.70;67.60;;;;;;5010275;28;20026;-78
2023/09/13 11:03:21;;;;;;;1.15;0.98;;;23.70;67.50;;;;;;4994153;28;20046;-78
2023/09/13 11:05:50;;;;;;;1.55;0.90;;;23.80;67.40;;;;;;4961678;28;20056;-77
2023/09/13 11:08:32;;;;;;;1.08;0.90;;;23.80;67.40;;;;;;4995054;28;20049;-78
2023/09/13 11:11:16;;;;;;;2.40;1.40;;;23.80;67.40;;;;;;4993315;28;20530;-77
2023/09/13 11:13:46;;;;;;;1.13;1.00;;;23.80;67.30;;;;;;4994762;28;20042;-78
2023/09/13 11:16:16;;;;;;;1.73;0.88;;;23.90;67.20;;;;;;4993546;28;20036;-78
2023/09/13 11:18:50;;;;;;;1.38;1.00;;;23.90;67.10;;;;;;4961062;28;20468;-78
2023/09/13 11:21:28;;;;;;;1.83;1.10;;;23.90;67.00;;;;;;5009577;28;20089;-77
2023/09/13 11:23:54;;;;;;;2.40;1.23;;;23.90;66.90;;;;;;4976992;28;20042;-76
2023/09/13 11:26:44;;;;;;;2.10;1.27;;;23.90;66.80;;;;;;4993353;28;20522;-77
2023/09/13 11:29:26;;;;;;;2.45;1.10;;;23.90;66.90;;;;;;5012830;28;20100;-78
2023/09/13 11:32:03;;;;;;;2.72;1.30;;;23.90;66.90;;;;;;4980396;28;20034;-76
2023/09/13 11:34:32;;;;;;;1.98;1.42;;;23.90;66.90;;;;;;4996107;28;20092;-77
2023/09/13 11:37:00;;;;;;;1.70;1.30;;;23.90;66.90;;;;;;5012379;28;20050;-77
2023/09/13 11:39:29;;;;;;;1.80;1.00;;;23.90;67.00;;;;;;5012691;28;20029;-77
2023/09/13 11:41:56;;;;;;;2.30;1.30;;;24.00;67.10;;;;;;5014104;28;20160;-75
2023/09/13 11:44:23;;;;;;;2.47;1.35;;;24.00;67.00;;;;;;5013496;28;20026;-76
2023/09/13 11:46:50;;;;;;;2.80;1.17;;;24.00;67.00;;;;;;5013377;28;20117;-76
2023/09/13 11:49:24;;;;;;;2.30;1.13;;;24.00;67.00;;;;;;4996072;28;20036;-79
2023/09/13 11:51:57;;;;;;;1.10;0.98;;;24.00;66.90;;;;;;5013173;28;20088;-80
2023/09/13 11:54:24;;;;;;;1.88;1.02;;;24.00;66.90;;;;;;5013800;28;20080;-79
2023/09/13 11:56:52;;;;;;;1.75;1.10;;;24.00;66.80;;;;;;4979778;28;20054;-80
2023/09/13 11:59:24;;;;;;;2.30;1.20;;;24.00;66.70;;;;;;5014441;28;20478;-79
2023/09/13 12:01:50;;;;;;;1.40;1.00;;;24.00;66.60;;;;;;4995699;28;20034;-79
2023/09/13 12:04:16;;;;;;;2.63;1.27;;;24.00;66.60;;;;;;4995857;28;20030;-80
2023/09/13 12:06:47;;;;;;;1.38;0.95;;;24.00;66.50;;;;;;5012910;28;20041;-79
2023/09/13 12:09:16;;;;;;;1.65;1.02;;;24.00;66.50;;;;;;4979409;28;20026;-80
2023/09/13 12:11:53;;;;;;;1.88;1.23;;;24.00;66.50;;;;;;5013676;28;20034;-79
2023/09/13 12:14:23;;;;;;;1.63;1.10;;;24.00;66.40;;;;;;4980089;28;20450;-79
2023/09/13 12:16:50;;;;;;;1.80;1.10;;;24.00;66.40;;;;;;5012167;28;20065;-79
2023/09/13 12:19:16;;;;;;;1.25;1.02;;;24.00;66.40;;;;;;5012630;28;20022;-79
2023/09/13 12:21:44;;;;;;;2.03;1.00;;;24.00;66.40;;;;;;5012673;28;20038;-79
2023/09/13 12:24:12;;;;;;;1.27;1.10;;;24.00;66.30;;;;;;4995675;28;20034;-79
2023/09/13 12:26:39;;;;;;;1.73;1.02;;;24.10;66.20;;;;;;4995945;28;20164;-83
2023/09/13 12:29:05;;;;;;;1.33;1.02;;;24.00;66.00;;;;;;4996233;28;20093;-79
2023/09/13 12:31:31;;;;;;;1.98;1.20;;;24.00;66.00;;;;;;4983190;28;20124;-80
2023/09/13 12:33:59;;;;;;;0.93;0.90;;;24.00;66.00;;;;;;4983199;28;20038;-78
2023/09/13 12:36:25;;;;;;;2.03;1.13;;;24.00;65.80;;;;;;5016868;28;20038;-80
2023/09/13 12:38:52;;;;;;;1.30;0.90;;;24.10;65.90;;;;;;4983103;28;20485;-77
2023/09/13 12:41:28;;;;;;;2.58;1.10;;;24.00;65.70;;;;;;4999502;28;20119;-77
2023/09/13 12:43:54;;;;;;;1.27;0.90;;;24.10;65.60;;;;;;5017675;28;20034;-77
2023/09/13 12:46:21;;;;;;;3.28;1.20;;;24.00;65.50;;;;;;4999200;28;20467;-76
2023/09/13 12:48:49;;;;;;;1.55;1.10;;;24.10;65.50;;;;;;5016485;28;20053;-77
2023/09/13 12:51:24;;;;;;;1.35;0.90;;;24.10;65.40;;;;;;5016138;28;20088;-78
2023/09/13 12:53:52;;;;;;;2.75;1.00;;;24.00;65.40;;;;;;5016567;28;20065;-77
2023/09/13 12:56:18;;;;;;;2.13;1.20;;;24.10;65.50;;;;;;4999116;28;20041;-77
2023/09/13 12:58:47;;;;;;;2.00;1.00;;;24.10;65.40;;;;;;5015738;28;20030;-78
2023/09/13 13:01:13;;;;;;;1.45;1.05;;;24.00;65.40;;;;;;5018751;28;20022;-77
2023/09/13 13:04:14;;;;;;;1.65;1.10;;;24.00;65.40;;;;;;4985124;28;20390;-76
2023/09/13 13:07:01;;;;;;;1.30;1.00;;;24.00;65.40;;;;;;5016982;28;20042;-77
2023/09/13 13:09:27;;;;;;;1.02;0.90;;;24.00;65.40;;;;;;5016708;28;20037;-78
2023/09/13 13:11:53;;;;;;;1.08;0.95;;;24.00;65.30;;;;;;4998998;28;20033;-78
2023/09/13 13:14:21;;;;;;;1.60;1.10;;;24.00;65.40;;;;;;4999408;28;20034;-77
2023/09/13 13:16:54;;;;;;;2.85;1.13;;;24.00;65.40;;;;;;5015182;28;20138;-78